Maritime Kelly Anne — 9V3274 — position and weather

sailwx.info

Track history (hours):
 
Tides and Currents Weather Stations Pressure Air Temp Water Temp Dewpoint Dewpoint Depression Visibility Wind Speed Wind Dir Waves Ship Positions

Maritime Kelly Anne

Last reported at 2017-Oct-13 07:00 UTC. Time now 2017-Oct-17 11:27 UTC.
Position N 29°19' W 093°14'.

Length 180 m; draft 11.6 m.

Type: Tanker. MMSI: 566312000.

Date/timePositionNaut miles runAvg speedWind from/ knotsBaromVisibWave heightAir tempDewpointWater temp
2017-Oct-13 07:00N 29°19' W 093°14'510.0
2017-Oct-13 06:30N 29°24' W 093°13'5 9.7
2017-Oct-13 06:00N 29°28' W 093°13'5 8.8
2017-Oct-13 05:25N 29°33' W 093°15'4 9.4
2017-Oct-13 05:00N 29°36' W 093°18'4 8.6
2017-Oct-13 04:30N 29°40' W 093°20'4 8.3
2017-Oct-13 04:00N 29°44' W 093°20'3 6.8
2017-Oct-13 03:30N 29°48' W 093°21'3 6.3
2017-Oct-13 03:00N 29°51' W 093°21'4 7.1
2017-Oct-13 02:30N 29°55' W 093°20'4 7.5
2017-Oct-13 02:00N 29°58' W 093°20'3 6.0
2017-Oct-13 01:30N 30°01' W 093°20'3 6.4
2017-Oct-13 01:00N 30°04' W 093°20'3 6.2
2017-Oct-13 00:30N 30°08' W 093°20'3 5.4
2017-Oct-13 00:00N 30°10' W 093°19'2 4.0
2017-Oct-12 23:30N 30°12' W 093°18'1 2.9
2017-Oct-12 23:00N 30°13' W 093°17'0 0.0
2017-Oct-12 22:30N 30°13' W 093°17'0 0.0
2017-Oct-12 22:00N 30°13' W 093°17'0 0.0
2017-Oct-12 21:30N 30°13' W 093°17'0 0.0
2017-Oct-12 21:00N 30°13' W 093°17'0 0.0
2017-Oct-12 20:30N 30°13' W 093°17'0 0.0
2017-Oct-12 20:00N 30°13' W 093°17'0 0.0
2017-Oct-12 19:30N 30°13' W 093°17'0 0.0
2017-Oct-12 19:00N 30°13' W 093°17'0 0.0
2017-Oct-12 18:30N 30°13' W 093°17'0 0.0
2017-Oct-12 18:00N 30°13' W 093°17'0 0.0
2017-Oct-12 17:30N 30°13' W 093°17'0 0.0
2017-Oct-12 17:00N 30°13' W 093°17'0 0.0
2017-Oct-12 16:30N 30°13' W 093°17'0 0.0
2017-Oct-12 16:00N 30°13' W 093°17'0 0.0
2017-Oct-12 15:30N 30°13' W 093°17'0 0.0
2017-Oct-12 15:00N 30°13' W 093°17'0 0.0
2017-Oct-12 14:30N 30°13' W 093°17'0 0.0
2017-Oct-12 14:00N 30°13' W 093°17'0 0.0
2017-Oct-12 13:30N 30°13' W 093°17'0 0.0
2017-Oct-12 13:00N 30°13' W 093°17'0 0.0
2017-Oct-12 12:30N 30°13' W 093°17'0 0.0
2017-Oct-12 12:00N 30°13' W 093°17'0 0.0
2017-Oct-12 11:30N 30°13' W 093°17'0 0.0
2017-Oct-12 11:00N 30°13' W 093°17'0 0.0
2017-Oct-12 10:30N 30°13' W 093°17'0 0.0
2017-Oct-12 10:00N 30°13' W 093°17'0 0.0
2017-Oct-12 09:30N 30°13' W 093°17'0 0.0
2017-Oct-12 09:00N 30°13' W 093°17'0 0.0
2017-Oct-12 08:30N 30°13' W 093°17'0 0.0
2017-Oct-12 08:00N 30°13' W 093°17'0 0.0
2017-Oct-12 07:30N 30°13' W 093°17'0 0.0
2017-Oct-12 07:00N 30°13' W 093°17'0 0.0
2017-Oct-12 06:30N 30°13' W 093°17'0 0.0
2017-Oct-12 06:00N 30°13' W 093°17'0 0.0
2017-Oct-12 05:30N 30°13' W 093°17'0 0.0
2017-Oct-12 05:00N 30°13' W 093°17'0 0.0
2017-Oct-12 04:30N 30°13' W 093°17'0 0.0
2017-Oct-12 04:00N 30°13' W 093°17'0 0.0
2017-Oct-12 03:30N 30°13' W 093°17'0 0.0
2017-Oct-12 03:00N 30°13' W 093°17'0 0.0
2017-Oct-12 02:30N 30°13' W 093°17'0 0.0
2017-Oct-12 02:00N 30°13' W 093°17'0 0.0
2017-Oct-12 01:30N 30°13' W 093°17'0 0.0
2017-Oct-12 01:00N 30°13' W 093°17'0 0.0
2017-Oct-12 00:30N 30°13' W 093°17'0 0.0
2017-Oct-12 00:00N 30°13' W 093°17'0 0.0
2017-Oct-11 23:30N 30°13' W 093°17'0 0.0
2017-Oct-11 23:00N 30°13' W 093°17'0 0.0
2017-Oct-11 22:30N 30°13' W 093°17'0 0.0
2017-Oct-11 22:00N 30°13' W 093°17'0 0.0
2017-Oct-11 21:30N 30°13' W 093°17'0 0.0
2017-Oct-11 21:00N 30°13' W 093°17'0 0.0
2017-Oct-11 20:30N 30°13' W 093°17'0 0.0
2017-Oct-11 20:00N 30°13' W 093°17'0 0.0
2017-Oct-11 19:30N 30°13' W 093°17'0 0.0
2017-Oct-11 19:00N 30°13' W 093°17'0 0.0
2017-Oct-11 18:30N 30°13' W 093°17'0 0.0
2017-Oct-11 18:00N 30°13' W 093°17'0 0.0
2017-Oct-11 17:30N 30°13' W 093°17'0 0.0
2017-Oct-11 17:00N 30°13' W 093°17'  
2017-Oct-09 02:52N 29°27' W 089°38'711.5
2017-Oct-09 02:16N 29°32' W 089°44'411.9
2017-Oct-09 01:54N 29°35' W 089°48'811.1
2017-Oct-09 01:11N 29°38' W 089°56'  
Track history (hours):
 
Tides and Currents Weather Stations Pressure Air Temp Water Temp Dewpoint Dewpoint Depression Visibility Wind Speed Wind Dir Waves Ship Positions

Maritime Kelly Anne

Last reported at 2017-Oct-13 07:00 UTC. Time now 2017-Oct-17 11:27 UTC.
Position N 29°19' W 093°14'.

Length 180 m; draft 11.6 m.

Type: Tanker. MMSI: 566312000.

Date/timePositionNaut miles runAvg speedWind from/ knotsBaromVisibWave heightAir tempDewpointWater temp
2017-Oct-13 07:00N 29°19' W 093°14'510.0
2017-Oct-13 06:30N 29°24' W 093°13'5 9.7
2017-Oct-13 06:00N 29°28' W 093°13'5 8.8
2017-Oct-13 05:25N 29°33' W 093°15'4 9.4
2017-Oct-13 05:00N 29°36' W 093°18'4 8.6
2017-Oct-13 04:30N 29°40' W 093°20'4 8.3
2017-Oct-13 04:00N 29°44' W 093°20'3 6.8
2017-Oct-13 03:30N 29°48' W 093°21'3 6.3
2017-Oct-13 03:00N 29°51' W 093°21'4 7.1
2017-Oct-13 02:30N 29°55' W 093°20'4 7.5
2017-Oct-13 02:00N 29°58' W 093°20'3 6.0
2017-Oct-13 01:30N 30°01' W 093°20'3 6.4
2017-Oct-13 01:00N 30°04' W 093°20'3 6.2
2017-Oct-13 00:30N 30°08' W 093°20'3 5.4
2017-Oct-13 00:00N 30°10' W 093°19'2 4.0
2017-Oct-12 23:30N 30°12' W 093°18'1 2.9
2017-Oct-12 23:00N 30°13' W 093°17'0 0.0
2017-Oct-12 22:30N 30°13' W 093°17'0 0.0
2017-Oct-12 22:00N 30°13' W 093°17'0 0.0
2017-Oct-12 21:30N 30°13' W 093°17'0 0.0
2017-Oct-12 21:00N 30°13' W 093°17'0 0.0
2017-Oct-12 20:30N 30°13' W 093°17'0 0.0
2017-Oct-12 20:00N 30°13' W 093°17'0 0.0
2017-Oct-12 19:30N 30°13' W 093°17'0 0.0
2017-Oct-12 19:00N 30°13' W 093°17'0 0.0
2017-Oct-12 18:30N 30°13' W 093°17'0 0.0
2017-Oct-12 18:00N 30°13' W 093°17'0 0.0
2017-Oct-12 17:30N 30°13' W 093°17'0 0.0
2017-Oct-12 17:00N 30°13' W 093°17'0 0.0
2017-Oct-12 16:30N 30°13' W 093°17'0 0.0
2017-Oct-12 16:00N 30°13' W 093°17'0 0.0
2017-Oct-12 15:30N 30°13' W 093°17'0 0.0
2017-Oct-12 15:00N 30°13' W 093°17'0 0.0
2017-Oct-12 14:30N 30°13' W 093°17'0 0.0
2017-Oct-12 14:00N 30°13' W 093°17'0 0.0
2017-Oct-12 13:30N 30°13' W 093°17'0 0.0
2017-Oct-12 13:00N 30°13' W 093°17'0 0.0
2017-Oct-12 12:30N 30°13' W 093°17'0 0.0
2017-Oct-12 12:00N 30°13' W 093°17'0 0.0
2017-Oct-12 11:30N 30°13' W 093°17'0 0.0
2017-Oct-12 11:00N 30°13' W 093°17'0 0.0
2017-Oct-12 10:30N 30°13' W 093°17'0 0.0
2017-Oct-12 10:00N 30°13' W 093°17'0 0.0
2017-Oct-12 09:30N 30°13' W 093°17'0 0.0
2017-Oct-12 09:00N 30°13' W 093°17'0 0.0
2017-Oct-12 08:30N 30°13' W 093°17'0 0.0
2017-Oct-12 08:00N 30°13' W 093°17'0 0.0
2017-Oct-12 07:30N 30°13' W 093°17'0 0.0
2017-Oct-12 07:00N 30°13' W 093°17'0 0.0
2017-Oct-12 06:30N 30°13' W 093°17'0 0.0
2017-Oct-12 06:00N 30°13' W 093°17'0 0.0
2017-Oct-12 05:30N 30°13' W 093°17'0 0.0
2017-Oct-12 05:00N 30°13' W 093°17'0 0.0
2017-Oct-12 04:30N 30°13' W 093°17'0 0.0
2017-Oct-12 04:00N 30°13' W 093°17'0 0.0
2017-Oct-12 03:30N 30°13' W 093°17'0 0.0
2017-Oct-12 03:00N 30°13' W 093°17'0 0.0
2017-Oct-12 02:30N 30°13' W 093°17'0 0.0
2017-Oct-12 02:00N 30°13' W 093°17'0 0.0
2017-Oct-12 01:30N 30°13' W 093°17'0 0.0
2017-Oct-12 01:00N 30°13' W 093°17'0 0.0
2017-Oct-12 00:30N 30°13' W 093°17'0 0.0
2017-Oct-12 00:00N 30°13' W 093°17'0 0.0
2017-Oct-11 23:30N 30°13' W 093°17'0 0.0
2017-Oct-11 23:00N 30°13' W 093°17'0 0.0
2017-Oct-11 22:30N 30°13' W 093°17'0 0.0
2017-Oct-11 22:00N 30°13' W 093°17'0 0.0
2017-Oct-11 21:30N 30°13' W 093°17'0 0.0
2017-Oct-11 21:00N 30°13' W 093°17'0 0.0
2017-Oct-11 20:30N 30°13' W 093°17'0 0.0
2017-Oct-11 20:00N 30°13' W 093°17'0 0.0
2017-Oct-11 19:30N 30°13' W 093°17'0 0.0
2017-Oct-11 19:00N 30°13' W 093°17'0 0.0
2017-Oct-11 18:30N 30°13' W 093°17'0 0.0
2017-Oct-11 18:00N 30°13' W 093°17'0 0.0
2017-Oct-11 17:30N 30°13' W 093°17'0 0.0
2017-Oct-11 17:00N 30°13' W 093°17'  
2017-Oct-09 02:52N 29°27' W 089°38'711.5
2017-Oct-09 02:16N 29°32' W 089°44'411.9
2017-Oct-09 01:54N 29°35' W 089°48'811.1
2017-Oct-09 01:11N 29°38' W 089°56'  

Dump ship's entire track history